Nearby METAR Reports

 

KSJC - San Jose, California, USA
Distance from station: NE 14km
Updated: 16/02/2019 22:53
Mostly cloudy
Mostly cloudy
 Wind from W
Wind: W 9 km/h
Temperature: 8°C
Wind Chill: 6°C
Dew Point: 4°C
Humidity: 76%
Barometer: 1020.7 hPa
Clouds: Mostly cloudy
Visibility: 16 km
Cloud details: Few Clouds 457 m
Partly cloudy 762 m
Mostly cloudy 1524 m
2019/02/17 02:53 KSJC 170253Z 28005KT 10SM FEW015 SCT025 BKN050 08/04 A3014 RMK AO2 RAE02 SLP206 TCU DSNT E P//// 6//// T00830044 55001
KNUQ - Moffett Nas/Mtn, California, USA
Distance from station: N 14km
Updated: 16/02/2019 22:56
Partly cloudy
Partly cloudy
 Wind from WNW
Wind: WNW 13 km/h
Temperature: 9°C
Wind Chill: 7°C
Dew Point: 3°C
Humidity: 66%
Barometer: 1021 hPa
Clouds: Partly cloudy
Visibility: 16 km
Cloud details: Few Clouds 1280 m
Partly cloudy 1829 m
2019/02/17 02:56 KNUQ 170256Z 30007KT 10SM FEW042 SCT060 09/03 A3015 RMK AO2 SLP212 60000 T00890033 53001 $
 
KPAO - Palo Alto, California, USA
Distance from station: NNW 23km
Updated: 16/02/2019 19:47
NOT Current
Mostly cloudy
Mostly cloudy
 Wind from WNW
Wind: WNW 28 km/h
Temperature: 11°C
Barometer: 1021 hPa
Clouds: Mostly cloudy
Visibility: 16 km
Cloud details: Partly cloudy 914 m
Mostly cloudy 1524 m
2019/02/16 23:47 KPAO 162347Z 30015KT 10SM SCT030 BKN050 11/ A3015
KRHV - San Jose/Reid, California, USA
Distance from station: ENE 19km
Updated: 15/02/2019 21:47
NOT Current
Overcast
Overcast
 Wind from varies
Wind: varies 9 km/h
Temperature: 7°C
Wind Chill: 6°C
Dew Point: 6°C
Humidity: 93%
Barometer: 1016.9 hPa
Clouds: Overcast
Visibility: 11 km
Cloud details: Overcast 1219 m
2019/02/16 01:47 KRHV 160147Z VRB05KT 7SM OVC040 07/06 A3003 RA
 
KOAK - Oakland, California, USA
Distance from station: NNW 50km
Updated: 16/02/2019 22:53
Mostly cloudy
Mostly cloudy
 Wind from WNW
Wind: WNW 28 km/h, Gust: 37 km/h
Temperature: 9°C
Wind Chill: 6°C
Dew Point: 3°C
Humidity: 66%
Barometer: 1020.7 hPa
Clouds: Mostly cloudy
Visibility: 16 km
Cloud details: Partly cloudy 975 m
Mostly cloudy 1250 m
2019/02/17 02:53 KOAK 170253Z 30015G20KT 10SM SCT032 BKN041 09/03 A3014 RMK AO2 PK WND 30026/0210 SLP204 T00940028 53000
KSQL - San Carlos Airpo, California, USA
Distance from station: NW 34km
Updated: 16/02/2019 22:49
Mostly cloudy
Mostly cloudy
 Wind from WNW
Wind: WNW 13 km/h
Temperature: 8°C
Wind Chill: 6°C
Dew Point: 4°C
Humidity: 76%
Barometer: 1020.7 hPa
Clouds: Mostly cloudy
Visibility: 16 km
Cloud details: Few Clouds 1067 m
Partly cloudy 1676 m
Mostly cloudy 2743 m
2019/02/17 02:49 KSQL 170249Z 29007KT 10SM FEW035 SCT055 BKN090 08/04 A3014
 
KSFO - San Francisco, California, USA
Distance from station: NW 49km
Updated: 16/02/2019 22:56
Mostly cloudy
Mostly cloudy
 Wind from W
Wind: W 35 km/h
Temperature: 8°C
Wind Chill: 3°C
Dew Point: 2°C
Humidity: 66%
Barometer: 1020 hPa
Clouds: Mostly cloudy
Visibility: 16 km
Cloud details: Few Clouds 823 m
Few Clouds 1250 m
Mostly cloudy 2896 m
2019/02/17 02:56 KSFO 170256Z 28019KT 10SM FEW027 FEW041 BKN095 08/02 A3012 RMK AO2 PK WND 29033/0207 RAB13E25 SLP200 P0000 60000 T00830022 55002
KE16 - San Martin, California, USA
Distance from station: ESE 43km
Updated: 16/02/2019 23:35
Overcast
Overcast
 Wind from calm
Wind: Calm
Temperature: 7°C
Dew Point: 3°C
Humidity: 76%
Barometer: 1021.3 hPa
Clouds: Overcast
Visibility: 16 km
Cloud details: Few Clouds 1006 m
Mostly cloudy 1311 m
Overcast 1676 m
2019/02/17 03:35 KE16 170335Z AUTO 00000KT 10SM FEW033 BKN043 OVC055 07/03 A3016 RMK AO2 PWINO PNO
 
KWVI - Watsonville, California, USA
Distance from station: SSE 44km
Updated: 16/02/2019 22:53
Partly cloudy
Partly cloudy
 Wind from WNW
Wind: WNW 6 km/h
Temperature: 8°C
Dew Point: 4°C
Humidity: 76%
Barometer: 1021.3 hPa
Clouds: Partly cloudy
Visibility: 16 km
Cloud details: Few Clouds 1189 m
Few Clouds 2134 m
Partly cloudy 2591 m
2019/02/17 02:53 KWVI 170253Z AUTO 29003KT 10SM FEW039 FEW070 SCT085 08/04 A3016 RMK AO2 RAB27E42 SLP214 P0000 60000 T00780044 53001
KHAF - Half Moon Bay, California, USA
Distance from station: WNW 50km
Updated: 13/02/2019 18:15
NOT Current
Light rain, Overcast
Light rain, Overcast
 Wind from S
Wind: S 54 km/h, Gust: 69 km/h
Temperature: 13°C
Dew Point: 12°C
Humidity: 94%
Barometer: 1000.3 hPa
Summary: Light rain
Clouds: Overcast
Visibility: 1.2 km
Cloud details: Overcast 213 m
2019/02/13 22:15 KHAF 132215Z AUTO 17029G37KT 3/4SM -RA OVC007 13/12 A2954 RMK AO2
 
KHWD - Hayward, California, USA
Distance from station: N 44km
Updated: 16/02/2019 22:54
Partly cloudy
Partly cloudy
 Wind from W
Wind: W 24 km/h
Temperature: 9°C
Wind Chill: 6°C
Dew Point: 3°C
Humidity: 66%
Barometer: 1020 hPa
Clouds: Partly cloudy
Visibility: 16 km
Cloud details: Partly cloudy 975 m
2019/02/17 02:54 KHWD 170254Z 28013KT 10SM SCT032 09/03 A3012 RMK AO2 RAB39E52 SLP209 P0000 60000 T00940033 56003
KLVK - Livermore, California, USA
Distance from station: NNE 51km
Updated: 16/02/2019 22:53
Clear
Clear
 Wind from W
Wind: W 28 km/h
Temperature: 7°C
Wind Chill: 3°C
Dew Point: 3°C
Humidity: 76%
Barometer: 1019.3 hPa
Clouds: Clear
Visibility: 16 km
2019/02/17 02:53 KLVK 170253Z 26015KT 10SM CLR 07/03 A3010 RMK AO2 SLP194 T00670028 55001